sensor_id;sensor_type;location;lat;lon;timestamp;pressure;altitude;pressure_sealevel;temperature;humidity
78016;BME280;67223;51.102;5.882;2023-07-22T00:01:47;101278.69;;;14.40;63.94
78016;BME280;67223;51.102;5.882;2023-07-22T00:04:13;101287.34;;;14.53;64.64
78016;BME280;67223;51.102;5.882;2023-07-22T00:06:38;101290.16;;;14.52;64.51
78016;BME280;67223;51.102;5.882;2023-07-22T00:09:04;101284.78;;;14.42;63.95
78016;BME280;67223;51.102;5.882;2023-07-22T00:11:30;101283.94;;;14.61;63.78
78016;BME280;67223;51.102;5.882;2023-07-22T00:13:55;101291.56;;;14.46;63.84
78016;BME280;67223;51.102;5.882;2023-07-22T00:16:20;101289.31;;;14.61;63.73
78016;BME280;67223;51.102;5.882;2023-07-22T00:18:46;101283.41;;;14.57;62.95
78016;BME280;67223;51.102;5.882;2023-07-22T00:21:13;101286.09;;;14.77;62.97
78016;BME280;67223;51.102;5.882;2023-07-22T00:23:38;101284.69;;;14.63;63.05
78016;BME280;67223;51.102;5.882;2023-07-22T00:26:04;101292.31;;;14.58;63.00
78016;BME280;67223;51.102;5.882;2023-07-22T00:28:30;101279.88;;;14.76;63.10
78016;BME280;67223;51.102;5.882;2023-07-22T00:30:55;101289.75;;;14.76;62.83
78016;BME280;67223;51.102;5.882;2023-07-22T00:33:22;101288.78;;;14.77;63.22
78016;BME280;67223;51.102;5.882;2023-07-22T00:35:49;101285.38;;;14.75;63.21
78016;BME280;67223;51.102;5.882;2023-07-22T00:38:17;101283.41;;;14.77;63.00
78016;BME280;67223;51.102;5.882;2023-07-22T00:40:43;101282.56;;;14.76;62.71
78016;BME280;67223;51.102;5.882;2023-07-22T00:43:09;101282.00;;;14.92;62.94
78016;BME280;67223;51.102;5.882;2023-07-22T00:45:34;101280.28;;;14.72;63.47
78016;BME280;67223;51.102;5.882;2023-07-22T00:48:00;101274.19;;;14.70;63.57
78016;BME280;67223;51.102;5.882;2023-07-22T00:50:25;101278.44;;;14.72;62.68
78016;BME280;67223;51.102;5.882;2023-07-22T00:52:52;101274.91;;;14.62;63.57
78016;BME280;67223;51.102;5.882;2023-07-22T00:55:17;101270.38;;;14.53;63.37
78016;BME280;67223;51.102;5.882;2023-07-22T00:57:43;101268.81;;;14.70;62.89
78016;BME280;67223;51.102;5.882;2023-07-22T01:00:09;101274.78;;;14.54;63.37
78016;BME280;67223;51.102;5.882;2023-07-22T01:02:40;101270.16;;;14.35;63.91
78016;BME280;67223;51.102;5.882;2023-07-22T01:05:06;101272.47;;;14.40;63.64
78016;BME280;67223;51.102;5.882;2023-07-22T01:07:32;101263.00;;;14.45;63.86
78016;BME280;67223;51.102;5.882;2023-07-22T01:09:58;101261.47;;;14.52;64.52
78016;BME280;67223;51.102;5.882;2023-07-22T01:12:23;101263.09;;;14.25;64.71
78016;BME280;67223;51.102;5.882;2023-07-22T01:14:50;101266.59;;;14.25;64.71
78016;BME280;67223;51.102;5.882;2023-07-22T01:17:15;101260.88;;;14.39;65.13
78016;BME280;67223;51.102;5.882;2023-07-22T01:19:41;101258.91;;;14.51;65.56
78016;BME280;67223;51.102;5.882;2023-07-22T01:22:07;101256.09;;;14.52;65.78
78016;BME280;67223;51.102;5.882;2023-07-22T01:24:36;101253.66;;;14.40;65.47
78016;BME280;67223;51.102;5.882;2023-07-22T01:27:03;101247.78;;;14.15;66.37
78016;BME280;67223;51.102;5.882;2023-07-22T01:29:33;101246.19;;;13.94;67.46
78016;BME280;67223;51.102;5.882;2023-07-22T01:31:58;101245.91;;;14.06;67.42
78016;BME280;67223;51.102;5.882;2023-07-22T01:34:24;101248.31;;;14.49;67.25
78016;BME280;67223;51.102;5.882;2023-07-22T01:36:50;101246.03;;;14.05;67.78
78016;BME280;67223;51.102;5.882;2023-07-22T01:39:16;101242.66;;;14.03;67.77
78016;BME280;67223;51.102;5.882;2023-07-22T01:41:43;101242.31;;;13.87;68.85
78016;BME280;67223;51.102;5.882;2023-07-22T01:44:08;101230.44;;;13.79;69.42
78016;BME280;67223;51.102;5.882;2023-07-22T01:46:34;101241.78;;;13.93;69.48
78016;BME280;67223;51.102;5.882;2023-07-22T01:49:01;101236.81;;;13.88;69.49
78016;BME280;67223;51.102;5.882;2023-07-22T01:51:27;101240.38;;;13.89;69.78
78016;BME280;67223;51.102;5.882;2023-07-22T01:53:52;101234.16;;;13.88;69.99
78016;BME280;67223;51.102;5.882;2023-07-22T01:56:18;101241.34;;;13.88;69.99
78016;BME280;67223;51.102;5.882;2023-07-22T01:58:45;101230.06;;;13.94;70.43
78016;BME280;67223;51.102;5.882;2023-07-22T02:01:11;101229.19;;;13.84;70.06
78016;BME280;67223;51.102;5.882;2023-07-22T02:03:39;101241.63;;;13.85;70.90
78016;BME280;67223;51.102;5.882;2023-07-22T02:06:05;101238.88;;;13.75;70.91
78016;BME280;67223;51.102;5.882;2023-07-22T02:08:30;101241.00;;;13.71;70.93
78016;BME280;67223;51.102;5.882;2023-07-22T02:11:04;101247.09;;;13.73;70.73
78016;BME280;67223;51.102;5.882;2023-07-22T02:13:31;101249.09;;;13.81;70.35
78016;BME280;67223;51.102;5.882;2023-07-22T02:15:56;101244.81;;;13.69;71.31
78016;BME280;67223;51.102;5.882;2023-07-22T02:18:22;101239.75;;;13.85;70.77
78016;BME280;67223;51.102;5.882;2023-07-22T02:20:47;101246.09;;;13.74;70.79
78016;BME280;67223;51.102;5.882;2023-07-22T02:23:13;101248.31;;;13.60;70.97
78016;BME280;67223;51.102;5.882;2023-07-22T02:25:39;101239.19;;;13.82;71.13
78016;BME280;67223;51.102;5.882;2023-07-22T02:28:04;101238.06;;;13.74;71.14
78016;BME280;67223;51.102;5.882;2023-07-22T02:30:34;101235.63;;;13.71;71.31
78016;BME280;67223;51.102;5.882;2023-07-22T02:33:02;101231.72;;;13.85;70.93
78016;BME280;67223;51.102;5.882;2023-07-22T02:35:27;101229.81;;;13.66;71.23
78016;BME280;67223;51.102;5.882;2023-07-22T02:37:53;101235.91;;;13.68;71.29
78016;BME280;67223;51.102;5.882;2023-07-22T02:40:18;101229.88;;;13.86;71.68
78016;BME280;67223;51.102;5.882;2023-07-22T02:42:44;101233.13;;;13.79;71.22
78016;BME280;67223;51.102;5.882;2023-07-22T02:45:09;101234.38;;;13.75;71.52
78016;BME280;67223;51.102;5.882;2023-07-22T02:47:35;101234.69;;;13.82;71.35
78016;BME280;67223;51.102;5.882;2023-07-22T02:50:01;101232.16;;;13.90;71.33
78016;BME280;67223;51.102;5.882;2023-07-22T02:52:26;101241.50;;;13.96;71.20
78016;BME280;67223;51.102;5.882;2023-07-22T02:55:07;101239.78;;;13.95;71.23
78016;BME280;67223;51.102;5.882;2023-07-22T02:57:33;101239.56;;;14.07;71.15
78016;BME280;67223;51.102;5.882;2023-07-22T03:00:02;101242.97;;;14.09;70.72
78016;BME280;67223;51.102;5.882;2023-07-22T03:02:32;101247.44;;;14.39;70.21
78016;BME280;67223;51.102;5.882;2023-07-22T03:04:58;101251.63;;;14.32;69.78
78016;BME280;67223;51.102;5.882;2023-07-22T03:07:24;101251.63;;;14.22;70.25
78016;BME280;67223;51.102;5.882;2023-07-22T03:09:51;101245.78;;;14.08;69.72
78016;BME280;67223;51.102;5.882;2023-07-22T03:12:17;101248.56;;;13.97;69.90
78016;BME280;67223;51.102;5.882;2023-07-22T03:14:42;101244.38;;;14.04;70.12
78016;BME280;67223;51.102;5.882;2023-07-22T03:17:07;101244.94;;;14.07;70.52
78016;BME280;67223;51.102;5.882;2023-07-22T03:19:33;101247.47;;;13.99;70.46
78016;BME280;67223;51.102;5.882;2023-07-22T03:21:58;101246.00;;;13.86;70.61
78016;BME280;67223;51.102;5.882;2023-07-22T03:24:24;101248.00;;;13.93;70.80
78016;BME280;67223;51.102;5.882;2023-07-22T03:26:50;101245.47;;;14.01;70.57
78016;BME280;67223;51.102;5.882;2023-07-22T03:29:16;101260.72;;;13.91;70.41
78016;BME280;67223;51.102;5.882;2023-07-22T03:31:41;101260.41;;;13.85;70.77
78016;BME280;67223;51.102;5.882;2023-07-22T03:34:06;101248.50;;;13.77;71.27
78016;BME280;67223;51.102;5.882;2023-07-22T03:36:32;101244.09;;;13.67;71.47
78016;BME280;67223;51.102;5.882;2023-07-22T03:39:01;101240.53;;;13.66;71.44
78016;BME280;67223;51.102;5.882;2023-07-22T03:41:28;101252.81;;;13.59;71.58
78016;BME280;67223;51.102;5.882;2023-07-22T03:43:53;101243.34;;;13.65;71.82
78016;BME280;67223;51.102;5.882;2023-07-22T03:46:19;101239.41;;;13.59;71.76
78016;BME280;67223;51.102;5.882;2023-07-22T03:48:45;101246.47;;;13.70;71.08
78016;BME280;67223;51.102;5.882;2023-07-22T03:51:10;101255.50;;;13.59;71.28
78016;BME280;67223;51.102;5.882;2023-07-22T03:53:38;101256.84;;;13.74;70.92
78016;BME280;67223;51.102;5.882;2023-07-22T03:56:04;101254.41;;;13.71;70.34
78016;BME280;67223;51.102;5.882;2023-07-22T03:58:29;101255.22;;;13.62;71.20
78016;BME280;67223;51.102;5.882;2023-07-22T04:03:34;101258.63;;;13.64;70.50
78016;BME280;67223;51.102;5.882;2023-07-22T04:06:00;101258.34;;;13.67;70.58
78016;BME280;67223;51.102;5.882;2023-07-22T04:08:26;101254.94;;;13.65;70.74
78016;BME280;67223;51.102;5.882;2023-07-22T04:10:55;101254.66;;;13.59;71.19
78016;BME280;67223;51.102;5.882;2023-07-22T04:13:22;101252.53;;;13.62;71.33
78016;BME280;67223;51.102;5.882;2023-07-22T04:15:48;101250.91;;;13.80;70.47
78016;BME280;67223;51.102;5.882;2023-07-22T04:18:17;101252.81;;;13.59;70.69
78016;BME280;67223;51.102;5.882;2023-07-22T04:20:43;101254.38;;;13.62;70.87
78016;BME280;67223;51.102;5.882;2023-07-22T04:23:09;101254.78;;;13.57;70.36
78016;BME280;67223;51.102;5.882;2023-07-22T04:25:44;101251.19;;;13.47;70.87
78016;BME280;67223;51.102;5.882;2023-07-22T04:28:10;101245.34;;;13.63;71.02
78016;BME280;67223;51.102;5.882;2023-07-22T04:30:36;101251.81;;;13.60;70.74
78016;BME280;67223;51.102;5.882;2023-07-22T04:33:03;101248.69;;;13.55;70.74
78016;BME280;67223;51.102;5.882;2023-07-22T04:35:34;101252.38;;;13.54;70.83
78016;BME280;67223;51.102;5.882;2023-07-22T04:38:01;101251.13;;;13.58;70.63
78016;BME280;67223;51.102;5.882;2023-07-22T04:40:26;101262.66;;;13.49;70.74
78016;BME280;67223;51.102;5.882;2023-07-22T04:42:52;101260.34;;;13.75;70.71
78016;BME280;67223;51.102;5.882;2023-07-22T04:45:17;101257.75;;;13.54;71.28
78016;BME280;67223;51.102;5.882;2023-07-22T04:47:45;101260.09;;;13.78;70.59
78016;BME280;67223;51.102;5.882;2023-07-22T04:50:13;101257.00;;;13.83;71.45
78016;BME280;67223;51.102;5.882;2023-07-22T04:52:39;101246.56;;;13.79;70.69
78016;BME280;67223;51.102;5.882;2023-07-22T04:55:06;101253.03;;;13.77;70.59
78016;BME280;67223;51.102;5.882;2023-07-22T04:57:41;101249.97;;;13.91;70.12
78016;BME280;67223;51.102;5.882;2023-07-22T05:00:13;101244.34;;;13.94;70.90
78016;BME280;67223;51.102;5.882;2023-07-22T05:02:40;101246.34;;;14.02;70.50
78016;BME280;67223;51.102;5.882;2023-07-22T05:05:06;101241.56;;;14.15;70.36
78016;BME280;67223;51.102;5.882;2023-07-22T05:07:32;101247.06;;;14.04;70.13
78016;BME280;67223;51.102;5.882;2023-07-22T05:09:58;101239.16;;;14.12;70.40
78016;BME280;67223;51.102;5.882;2023-07-22T05:12:23;101254.06;;;14.45;69.46
78016;BME280;67223;51.102;5.882;2023-07-22T05:14:48;101249.25;;;14.29;69.88
78016;BME280;67223;51.102;5.882;2023-07-22T05:17:15;101248.38;;;14.19;69.98
78016;BME280;67223;51.102;5.882;2023-07-22T05:19:40;101247.06;;;14.04;70.30
78016;BME280;67223;51.102;5.882;2023-07-22T05:22:06;101253.47;;;14.22;70.59
78016;BME280;67223;51.102;5.882;2023-07-22T05:24:32;101258.53;;;14.25;70.15
78016;BME280;67223;51.102;5.882;2023-07-22T05:26:58;101259.19;;;14.57;69.61
78016;BME280;67223;51.102;5.882;2023-07-22T05:29:23;101251.56;;;14.82;69.91
78016;BME280;67223;51.102;5.882;2023-07-22T05:31:48;101253.28;;;14.63;69.35
78016;BME280;67223;51.102;5.882;2023-07-22T05:34:14;101257.78;;;14.82;68.41
78016;BME280;67223;51.102;5.882;2023-07-22T05:36:39;101263.19;;;14.73;68.38
78016;BME280;67223;51.102;5.882;2023-07-22T05:39:05;101259.19;;;14.96;69.09
78016;BME280;67223;51.102;5.882;2023-07-22T05:41:33;101255.09;;;14.82;68.80
78016;BME280;67223;51.102;5.882;2023-07-22T05:43:58;101258.34;;;14.76;69.33
78016;BME280;67223;51.102;5.882;2023-07-22T05:46:24;101259.63;;;14.53;69.21
78016;BME280;67223;51.102;5.882;2023-07-22T05:48:49;101261.75;;;14.59;68.96
78016;BME280;67223;51.102;5.882;2023-07-22T05:51:15;101267.69;;;14.72;69.85
78016;BME280;67223;51.102;5.882;2023-07-22T05:53:41;101271.91;;;14.55;70.05
78016;BME280;67223;51.102;5.882;2023-07-22T05:56:07;101268.97;;;14.58;69.46
78016;BME280;67223;51.102;5.882;2023-07-22T05:58:32;101261.34;;;14.63;69.35
78016;BME280;67223;51.102;5.882;2023-07-22T06:00:57;101261.59;;;14.60;69.87
78016;BME280;67223;51.102;5.882;2023-07-22T06:03:23;101261.75;;;14.69;69.52
78016;BME280;67223;51.102;5.882;2023-07-22T06:05:48;101257.94;;;14.61;69.63
78016;BME280;67223;51.102;5.882;2023-07-22T06:08:14;101264.28;;;14.70;70.18
78016;BME280;67223;51.102;5.882;2023-07-22T06:10:40;101259.34;;;14.75;69.82
78016;BME280;67223;51.102;5.882;2023-07-22T06:13:06;101258.50;;;14.75;70.18
78016;BME280;67223;51.102;5.882;2023-07-22T06:15:31;101262.75;;;14.77;69.96
78016;BME280;67223;51.102;5.882;2023-07-22T06:17:57;101266.28;;;14.78;69.60
78016;BME280;67223;51.102;5.882;2023-07-22T06:20:23;101267.63;;;15.49;69.54
78016;BME280;67223;51.102;5.882;2023-07-22T06:22:48;101270.09;;;15.04;69.30
78016;BME280;67223;51.102;5.882;2023-07-22T06:25:14;101268.81;;;15.18;69.09
78016;BME280;67223;51.102;5.882;2023-07-22T06:27:39;101267.91;;;16.65;69.47
78016;BME280;67223;51.102;5.882;2023-07-22T06:30:05;101278.16;;;19.41;62.25
78016;BME280;67223;51.102;5.882;2023-07-22T06:32:30;101285.13;;;20.76;57.21
78016;BME280;67223;51.102;5.882;2023-07-22T06:34:57;101269.88;;;18.27;58.54
78016;BME280;67223;51.102;5.882;2023-07-22T06:37:23;101283.66;;;20.88;56.89
78016;BME280;67223;51.102;5.882;2023-07-22T06:39:49;101274.59;;;21.41;54.54
78016;BME280;67223;51.102;5.882;2023-07-22T06:42:14;101278.41;;;18.06;57.18
78016;BME280;67223;51.102;5.882;2023-07-22T06:44:40;101280.75;;;17.50;59.47
78016;BME280;67223;51.102;5.882;2023-07-22T06:47:05;101279.16;;;18.83;57.11
78016;BME280;67223;51.102;5.882;2023-07-22T06:49:31;101278.16;;;16.97;61.71
78016;BME280;67223;51.102;5.882;2023-07-22T06:51:56;101269.09;;;18.43;61.17
78016;BME280;67223;51.102;5.882;2023-07-22T06:54:22;101270.53;;;19.44;58.12
78016;BME280;67223;51.102;5.882;2023-07-22T06:56:47;101266.03;;;17.44;60.82
78016;BME280;67223;51.102;5.882;2023-07-22T06:59:13;101261.69;;;17.43;61.36
78016;BME280;67223;51.102;5.882;2023-07-22T07:01:41;101268.00;;;18.78;61.68
78016;BME280;67223;51.102;5.882;2023-07-22T07:04:06;101274.50;;;16.53;63.46
78016;BME280;67223;51.102;5.882;2023-07-22T07:06:32;101272.44;;;17.00;62.86
78016;BME280;67223;51.102;5.882;2023-07-22T07:09:00;101266.06;;;17.01;63.09
78016;BME280;67223;51.102;5.882;2023-07-22T07:11:26;101267.56;;;16.77;64.63
78016;BME280;67223;51.102;5.882;2023-07-22T07:13:51;101267.06;;;17.00;65.17
78016;BME280;67223;51.102;5.882;2023-07-22T07:16:27;101265.66;;;16.43;65.64
78016;BME280;67223;51.102;5.882;2023-07-22T07:18:53;101260.16;;;16.62;65.97
78016;BME280;67223;51.102;5.882;2023-07-22T07:21:19;101263.13;;;16.94;65.32
78016;BME280;67223;51.102;5.882;2023-07-22T07:23:45;101266.66;;;19.14;60.47
78016;BME280;67223;51.102;5.882;2023-07-22T07:26:11;101262.34;;;19.76;56.45
78016;BME280;67223;51.102;5.882;2023-07-22T07:28:36;101266.78;;;20.08;55.25
78016;BME280;67223;51.102;5.882;2023-07-22T07:31:02;101259.16;;;21.71;51.55
78016;BME280;67223;51.102;5.882;2023-07-22T07:33:28;101268.44;;;21.77;51.65
78016;BME280;67223;51.102;5.882;2023-07-22T07:35:53;101265.50;;;22.37;50.41
78016;BME280;67223;51.102;5.882;2023-07-22T07:38:19;101269.41;;;21.09;53.74
78016;BME280;67223;51.102;5.882;2023-07-22T07:40:44;101263.38;;;19.75;56.78
78016;BME280;67223;51.102;5.882;2023-07-22T07:43:09;101269.88;;;18.77;59.42
78016;BME280;67223;51.102;5.882;2023-07-22T07:45:38;101276.13;;;19.43;61.20
78016;BME280;67223;51.102;5.882;2023-07-22T07:48:04;101270.56;;;19.12;60.53
78016;BME280;67223;51.102;5.882;2023-07-22T07:50:30;101278.84;;;18.78;61.14
78016;BME280;67223;51.102;5.882;2023-07-22T07:52:56;101274.75;;;19.39;60.86
78016;BME280;67223;51.102;5.882;2023-07-22T07:55:21;101272.75;;;18.92;59.59
78016;BME280;67223;51.102;5.882;2023-07-22T07:57:46;101271.38;;;19.37;60.33
78016;BME280;67223;51.102;5.882;2023-07-22T08:00:12;101262.78;;;19.17;59.79
78016;BME280;67223;51.102;5.882;2023-07-22T08:02:38;101267.25;;;18.52;61.46
78016;BME280;67223;51.102;5.882;2023-07-22T08:05:03;101271.38;;;18.22;62.22
78016;BME280;67223;51.102;5.882;2023-07-22T08:07:31;101267.81;;;18.71;63.31
78016;BME280;67223;51.102;5.882;2023-07-22T08:09:56;101268.81;;;20.99;59.08
78016;BME280;67223;51.102;5.882;2023-07-22T08:12:23;101271.88;;;19.24;58.63
78016;BME280;67223;51.102;5.882;2023-07-22T08:14:49;101262.59;;;18.94;60.34
78016;BME280;67223;51.102;5.882;2023-07-22T08:17:14;101259.88;;;19.26;59.54
78016;BME280;67223;51.102;5.882;2023-07-22T08:19:39;101256.16;;;19.03;60.40
78016;BME280;67223;51.102;5.882;2023-07-22T08:22:05;101270.25;;;20.33;59.62
78016;BME280;67223;51.102;5.882;2023-07-22T08:24:31;101266.00;;;19.12;58.52
78016;BME280;67223;51.102;5.882;2023-07-22T08:26:57;101269.53;;;19.21;58.48
78016;BME280;67223;51.102;5.882;2023-07-22T08:29:24;101262.78;;;20.89;56.62
78016;BME280;67223;51.102;5.882;2023-07-22T08:31:49;101261.94;;;20.66;55.50
78016;BME280;67223;51.102;5.882;2023-07-22T08:34:14;101265.72;;;21.77;54.28
78016;BME280;67223;51.102;5.882;2023-07-22T08:36:41;101265.38;;;20.59;53.92
78016;BME280;67223;51.102;5.882;2023-07-22T08:39:06;101262.56;;;20.76;53.63
78016;BME280;67223;51.102;5.882;2023-07-22T08:41:32;101258.31;;;19.64;56.48
78016;BME280;67223;51.102;5.882;2023-07-22T08:44:00;101258.69;;;19.37;56.85
78016;BME280;67223;51.102;5.882;2023-07-22T08:46:28;101260.22;;;19.15;58.19
78016;BME280;67223;51.102;5.882;2023-07-22T08:48:56;101267.78;;;19.68;56.70
78016;BME280;67223;51.102;5.882;2023-07-22T08:51:23;101258.13;;;20.13;56.49
78016;BME280;67223;51.102;5.882;2023-07-22T08:53:50;101266.56;;;20.26;55.60
78016;BME280;67223;51.102;5.882;2023-07-22T08:56:16;101261.31;;;19.77;56.34
78016;BME280;67223;51.102;5.882;2023-07-22T08:58:43;101263.06;;;19.54;56.67
78016;BME280;67223;51.102;5.882;2023-07-22T09:01:09;101261.25;;;19.94;55.18
78016;BME280;67223;51.102;5.882;2023-07-22T09:03:34;101259.94;;;21.05;55.22
78016;BME280;67223;51.102;5.882;2023-07-22T09:06:00;101256.91;;;21.45;53.32
78016;BME280;67223;51.102;5.882;2023-07-22T09:08:26;101260.03;;;22.01;51.86
78016;BME280;67223;51.102;5.882;2023-07-22T09:10:53;101269.81;;;21.43;50.68
78016;BME280;67223;51.102;5.882;2023-07-22T09:13:18;101265.97;;;21.53;52.50
78016;BME280;67223;51.102;5.882;2023-07-22T09:15:45;101262.97;;;22.36;49.83
78016;BME280;67223;51.102;5.882;2023-07-22T09:18:12;101266.09;;;21.74;50.17
78016;BME280;67223;51.102;5.882;2023-07-22T09:20:40;101269.09;;;22.59;49.66
78016;BME280;67223;51.102;5.882;2023-07-22T09:23:06;101272.75;;;22.81;49.32
78016;BME280;67223;51.102;5.882;2023-07-22T09:25:32;101276.94;;;22.83;47.88
78016;BME280;67223;51.102;5.882;2023-07-22T09:28:00;101278.66;;;23.33;47.44
78016;BME280;67223;51.102;5.882;2023-07-22T09:30:28;101278.03;;;22.53;47.64
78016;BME280;67223;51.102;5.882;2023-07-22T09:32:55;101275.84;;;22.99;48.30
78016;BME280;67223;51.102;5.882;2023-07-22T09:35:22;101275.78;;;23.41;47.24
78016;BME280;67223;51.102;5.882;2023-07-22T09:37:48;101281.56;;;23.53;47.51
78016;BME280;67223;51.102;5.882;2023-07-22T09:40:25;101279.66;;;23.04;46.91
78016;BME280;67223;51.102;5.882;2023-07-22T09:42:53;101277.91;;;22.97;47.20
78016;BME280;67223;51.102;5.882;2023-07-22T09:45:20;101266.53;;;22.51;48.32
78016;BME280;67223;51.102;5.882;2023-07-22T09:47:47;101267.06;;;23.46;47.44
78016;BME280;67223;51.102;5.882;2023-07-22T09:50:16;101274.88;;;22.49;47.15
78016;BME280;67223;51.102;5.882;2023-07-22T09:55:19;101277.06;;;22.75;49.64
78016;BME280;67223;51.102;5.882;2023-07-22T09:57:47;101269.50;;;22.05;49.57
78016;BME280;67223;51.102;5.882;2023-07-22T10:00:14;101270.72;;;22.89;47.96
78016;BME280;67223;51.102;5.882;2023-07-22T10:02:42;101266.03;;;23.26;47.83
78016;BME280;67223;51.102;5.882;2023-07-22T10:05:15;101272.41;;;23.39;47.37
78016;BME280;67223;51.102;5.882;2023-07-22T10:08:01;101265.66;;;22.14;47.75
78016;BME280;67223;51.102;5.882;2023-07-22T10:10:38;101266.13;;;23.39;48.34
78016;BME280;67223;51.102;5.882;2023-07-22T10:13:04;101261.34;;;23.69;47.43
78016;BME280;67223;51.102;5.882;2023-07-22T10:15:33;101262.22;;;23.76;47.15
78016;BME280;67223;51.102;5.882;2023-07-22T10:18:00;101264.38;;;23.87;46.79
78016;BME280;67223;51.102;5.882;2023-07-22T10:20:26;101261.94;;;23.98;45.82
78016;BME280;67223;51.102;5.882;2023-07-22T10:22:53;101249.31;;;23.91;46.45
78016;BME280;67223;51.102;5.882;2023-07-22T10:25:19;101252.63;;;23.86;46.38
78016;BME280;67223;51.102;5.882;2023-07-22T10:27:46;101253.78;;;24.12;45.99
78016;BME280;67223;51.102;5.882;2023-07-22T10:30:14;101251.06;;;24.12;45.46
78016;BME280;67223;51.102;5.882;2023-07-22T10:32:52;101247.84;;;23.95;46.12
78016;BME280;67223;51.102;5.882;2023-07-22T10:37:55;101242.13;;;23.83;45.70
78016;BME280;67223;51.102;5.882;2023-07-22T10:45:25;101238.56;;;24.24;44.29
78016;BME280;67223;51.102;5.882;2023-07-22T10:48:06;101228.84;;;24.15;43.11
78016;BME280;67223;51.102;5.882;2023-07-22T10:50:43;101244.88;;;24.31;43.99
78016;BME280;67223;51.102;5.882;2023-07-22T10:53:29;101241.16;;;24.45;43.83
78016;BME280;67223;51.102;5.882;2023-07-22T10:56:20;101235.06;;;24.43;43.80
78016;BME280;67223;51.102;5.882;2023-07-22T11:11:56;101220.72;;;24.28;44.40
78016;BME280;67223;51.102;5.882;2023-07-22T11:14:24;101224.34;;;24.41;43.65
78016;BME280;67223;51.102;5.882;2023-07-22T11:16:50;101222.22;;;24.37;43.81
78016;BME280;67223;51.102;5.882;2023-07-22T11:19:17;101214.22;;;24.29;43.92
78016;BME280;67223;51.102;5.882;2023-07-22T11:21:44;101202.44;;;24.22;42.83
78016;BME280;67223;51.102;5.882;2023-07-22T11:24:10;101205.44;;;24.40;42.57
78016;BME280;67223;51.102;5.882;2023-07-22T11:26:35;101209.03;;;24.54;42.83
78016;BME280;67223;51.102;5.882;2023-07-22T11:29:07;101199.59;;;24.76;41.60
78016;BME280;67223;51.102;5.882;2023-07-22T11:31:42;101199.63;;;25.48;37.85
78016;BME280;67223;51.102;5.882;2023-07-22T11:34:21;101202.56;;;24.68;42.18
78016;BME280;67223;51.102;5.882;2023-07-22T11:36:49;101203.44;;;24.88;39.39
78016;BME280;67223;51.102;5.882;2023-07-22T11:39:17;101206.59;;;24.92;38.60
78016;BME280;67223;51.102;5.882;2023-07-22T11:41:44;101203.59;;;24.60;41.99
78016;BME280;67223;51.102;5.882;2023-07-22T11:44:11;101200.28;;;24.91;36.43
78016;BME280;67223;51.102;5.882;2023-07-22T11:47:01;101187.41;;;24.59;42.16
78016;BME280;67223;51.102;5.882;2023-07-22T11:52:11;101181.16;;;25.11;36.97
78016;BME280;67223;51.102;5.882;2023-07-22T11:54:40;101182.63;;;24.87;40.74
78016;BME280;67223;51.102;5.882;2023-07-22T11:57:22;101178.22;;;24.93;38.93
78016;BME280;67223;51.102;5.882;2023-07-22T11:59:52;101173.47;;;24.27;39.92
78016;BME280;67223;51.102;5.882;2023-07-22T12:02:20;101172.03;;;24.38;39.10
78016;BME280;67223;51.102;5.882;2023-07-22T12:04:57;101168.78;;;24.89;38.11
78016;BME280;67223;51.102;5.882;2023-07-22T12:07:30;101168.97;;;24.80;38.35
78016;BME280;67223;51.102;5.882;2023-07-22T12:09:58;101164.31;;;24.68;39.84
78016;BME280;67223;51.102;5.882;2023-07-22T12:12:37;101163.66;;;24.39;38.54
78016;BME280;67223;51.102;5.882;2023-07-22T12:15:13;101156.72;;;24.43;42.94
78016;BME280;67223;51.102;5.882;2023-07-22T12:20:40;101156.31;;;24.53;42.50
78016;BME280;67223;51.102;5.882;2023-07-22T12:23:06;101162.19;;;24.43;39.24
78016;BME280;67223;51.102;5.882;2023-07-22T12:25:31;101162.63;;;24.54;42.34
78016;BME280;67223;51.102;5.882;2023-07-22T12:27:57;101158.22;;;24.66;42.13
78016;BME280;67223;51.102;5.882;2023-07-22T12:30:22;101157.19;;;24.80;41.25
78016;BME280;67223;51.102;5.882;2023-07-22T12:32:49;101159.03;;;24.53;41.17
78016;BME280;67223;51.102;5.882;2023-07-22T12:35:14;101153.16;;;24.63;42.03
78016;BME280;67223;51.102;5.882;2023-07-22T12:37:40;101160.31;;;24.64;42.36
78016;BME280;67223;51.102;5.882;2023-07-22T12:40:05;101158.22;;;24.66;41.50
78016;BME280;67223;51.102;5.882;2023-07-22T12:42:34;101163.41;;;24.41;41.72
78016;BME280;67223;51.102;5.882;2023-07-22T12:44:59;101154.41;;;24.34;43.49
78016;BME280;67223;51.102;5.882;2023-07-22T12:47:24;101157.91;;;24.21;42.66
78016;BME280;67223;51.102;5.882;2023-07-22T12:49:50;101156.19;;;24.14;38.13
78016;BME280;67223;51.102;5.882;2023-07-22T12:52:15;101152.06;;;24.31;42.54
78016;BME280;67223;51.102;5.882;2023-07-22T12:54:41;101156.69;;;24.37;42.49
78016;BME280;67223;51.102;5.882;2023-07-22T12:57:06;101143.06;;;24.30;42.98
78016;BME280;67223;51.102;5.882;2023-07-22T12:59:32;101148.31;;;24.25;41.46
78016;BME280;67223;51.102;5.882;2023-07-22T13:01:57;101141.16;;;24.37;42.40
78016;BME280;67223;51.102;5.882;2023-07-22T13:04:23;101142.66;;;24.40;42.66
78016;BME280;67223;51.102;5.882;2023-07-22T13:06:50;101140.34;;;24.30;42.88
78016;BME280;67223;51.102;5.882;2023-07-22T13:09:17;101125.41;;;24.20;43.32
78016;BME280;67223;51.102;5.882;2023-07-22T13:11:42;101129.19;;;24.32;42.23
78016;BME280;67223;51.102;5.882;2023-07-22T13:14:08;101122.47;;;24.28;42.50
78016;BME280;67223;51.102;5.882;2023-07-22T13:16:33;101131.06;;;24.25;42.40
78016;BME280;67223;51.102;5.882;2023-07-22T13:18:59;101125.41;;;24.20;42.18
78016;BME280;67223;51.102;5.882;2023-07-22T13:21:26;101128.13;;;24.20;43.15